LFBE

Details ICAO LFBE (EGC)
Name Bergerac Roumaniere
Region France
Timezone Europe/Paris (UTC+1.0)
Plans Departing 37
Arriving 59
Stats Elevation 171 ft / 52 m (AMSL)
Location 44.824525° 0.518776°
Runways 1
Magnetic Variation 0.290° E
Sunrise 2017-12-16 07:30:48 UTC / 2017-12-16 08:30:48 Local
Sunset 2017-12-16 16:19:05 UTC / 2017-12-16 17:19:05 Local
Advertisement - Login to hide

Runways

ID Width Length Bearing (true) Bearing (mag) Surface Threshold Offset Overrun Length
10 148 ft / 45 m 7,178 ft / 2,188 m 94.33° 94.04° Asphalt 687 ft / 209 m 0 ft / 0 m
28 148 ft / 45 m 7,178 ft / 2,188 m 274.35° 274.06° Asphalt 804 ft / 245 m 0 ft / 0 m

Approach Navaids

Runway Type Ident Frequency Range Bearing (true) Bearing (mag) Slope Elevation
28 Localiser RM 108.15 MHz 18 nm / 33 km 274.33° 274.04° - 184 ft / 56 m (AMSL)
28 Glidescope RM 108.15 MHz 10 nm / 19 km 274.34° 274.05° 3.00° 220 ft / 67 m (AMSL)

Map

Weather


0- 5 10 15 20 25 30 35+ Temperature / ° C

Clouds and Precipitation
Forecast for 2017-12-16 06:00 UTC. Updated 10 minutes ago

Ground ~20,000 ft ~40,000 ft Winds

METAR

LFBE 160300Z AUTO 28004KT 0800 R27///// FG NSC 01/M00 Q1015

TAF

TAF LFBE 152100Z 1521/1618 CNL

Frequencies

Tower 119.80 MHz BERGERAC TWR
Approach 119.27 MHz AQUITAINE APP
Warning: Do not use this data for real-world aviation or navigation. No guarantee of current accuracy is given.